sensor_id;sensor_type;location;lat;lon;timestamp;P1;durP1;ratioP1;P2;durP2;ratioP2
9934;SDS011;5006;41.828;23.478;2024-03-22T00:00:30;3.25;;;2.38;;
9934;SDS011;5006;41.828;23.478;2024-03-22T00:01:36;2.08;;;1.83;;
9934;SDS011;5006;41.828;23.478;2024-03-22T00:02:41;3.05;;;2.15;;
9934;SDS011;5006;41.828;23.478;2024-03-22T00:03:47;2.17;;;1.75;;
9934;SDS011;5006;41.828;23.478;2024-03-22T00:04:53;3.67;;;2.00;;
9934;SDS011;5006;41.828;23.478;2024-03-22T00:06:00;3.40;;;2.20;;
9934;SDS011;5006;41.828;23.478;2024-03-22T00:07:07;3.13;;;2.20;;
9934;SDS011;5006;41.828;23.478;2024-03-22T00:08:13;3.67;;;2.22;;
9934;SDS011;5006;41.828;23.478;2024-03-22T00:09:18;3.20;;;2.10;;
9934;SDS011;5006;41.828;23.478;2024-03-22T00:10:24;3.47;;;2.33;;
9934;SDS011;5006;41.828;23.478;2024-03-22T00:11:30;2.45;;;2.10;;
9934;SDS011;5006;41.828;23.478;2024-03-22T00:12:36;3.63;;;2.20;;
9934;SDS011;5006;41.828;23.478;2024-03-22T00:13:42;3.08;;;2.33;;
9934;SDS011;5006;41.828;23.478;2024-03-22T00:14:49;3.00;;;2.35;;
9934;SDS011;5006;41.828;23.478;2024-03-22T00:15:55;2.33;;;2.10;;
9934;SDS011;5006;41.828;23.478;2024-03-22T00:17:00;3.67;;;2.00;;
9934;SDS011;5006;41.828;23.478;2024-03-22T00:18:06;4.00;;;2.13;;
9934;SDS011;5006;41.828;23.478;2024-03-22T00:19:11;3.55;;;1.70;;
9934;SDS011;5006;41.828;23.478;2024-03-22T00:20:17;2.53;;;2.33;;
9934;SDS011;5006;41.828;23.478;2024-03-22T00:21:24;3.17;;;2.15;;
9934;SDS011;5006;41.828;23.478;2024-03-22T00:22:32;4.25;;;2.25;;
9934;SDS011;5006;41.828;23.478;2024-03-22T00:23:37;3.45;;;2.40;;
9934;SDS011;5006;41.828;23.478;2024-03-22T00:24:43;3.25;;;2.20;;
9934;SDS011;5006;41.828;23.478;2024-03-22T00:25:50;4.97;;;2.40;;
9934;SDS011;5006;41.828;23.478;2024-03-22T00:26:56;2.55;;;2.10;;
9934;SDS011;5006;41.828;23.478;2024-03-22T00:28:01;2.90;;;2.25;;
9934;SDS011;5006;41.828;23.478;2024-03-22T00:29:07;2.53;;;1.92;;
9934;SDS011;5006;41.828;23.478;2024-03-22T00:30:12;3.88;;;2.30;;
9934;SDS011;5006;41.828;23.478;2024-03-22T00:31:20;3.88;;;2.50;;
9934;SDS011;5006;41.828;23.478;2024-03-22T00:32:26;3.75;;;2.40;;
9934;SDS011;5006;41.828;23.478;2024-03-22T00:33:31;3.47;;;2.10;;
9934;SDS011;5006;41.828;23.478;2024-03-22T00:34:36;4.85;;;2.42;;
9934;SDS011;5006;41.828;23.478;2024-03-22T00:35:43;3.40;;;2.30;;
9934;SDS011;5006;41.828;23.478;2024-03-22T00:36:48;3.28;;;2.30;;
9934;SDS011;5006;41.828;23.478;2024-03-22T00:37:57;4.15;;;2.65;;
9934;SDS011;5006;41.828;23.478;2024-03-22T00:39:02;3.15;;;2.40;;
9934;SDS011;5006;41.828;23.478;2024-03-22T00:40:10;2.85;;;2.38;;
9934;SDS011;5006;41.828;23.478;2024-03-22T00:41:16;2.70;;;2.40;;
9934;SDS011;5006;41.828;23.478;2024-03-22T00:42:24;2.83;;;2.17;;
9934;SDS011;5006;41.828;23.478;2024-03-22T00:43:29;3.35;;;2.40;;
9934;SDS011;5006;41.828;23.478;2024-03-22T00:44:35;3.15;;;2.60;;
9934;SDS011;5006;41.828;23.478;2024-03-22T00:45:40;2.80;;;2.00;;
9934;SDS011;5006;41.828;23.478;2024-03-22T00:46:46;3.85;;;2.70;;
9934;SDS011;5006;41.828;23.478;2024-03-22T00:47:53;4.10;;;2.40;;
9934;SDS011;5006;41.828;23.478;2024-03-22T00:48:58;3.58;;;2.63;;
9934;SDS011;5006;41.828;23.478;2024-03-22T00:50:03;2.90;;;2.38;;
9934;SDS011;5006;41.828;23.478;2024-03-22T00:51:09;3.13;;;2.40;;
9934;SDS011;5006;41.828;23.478;2024-03-22T00:52:15;3.30;;;2.28;;
9934;SDS011;5006;41.828;23.478;2024-03-22T00:53:21;3.40;;;2.65;;
9934;SDS011;5006;41.828;23.478;2024-03-22T00:54:27;4.30;;;2.75;;
9934;SDS011;5006;41.828;23.478;2024-03-22T00:55:33;3.63;;;2.33;;
9934;SDS011;5006;41.828;23.478;2024-03-22T00:56:39;3.75;;;2.40;;
9934;SDS011;5006;41.828;23.478;2024-03-22T00:57:44;4.80;;;2.50;;
9934;SDS011;5006;41.828;23.478;2024-03-22T00:58:50;2.92;;;2.40;;
9934;SDS011;5006;41.828;23.478;2024-03-22T00:59:57;4.28;;;2.40;;
9934;SDS011;5006;41.828;23.478;2024-03-22T01:01:03;3.58;;;2.30;;
9934;SDS011;5006;41.828;23.478;2024-03-22T01:02:09;3.65;;;2.17;;
9934;SDS011;5006;41.828;23.478;2024-03-22T01:03:14;4.63;;;2.60;;
9934;SDS011;5006;41.828;23.478;2024-03-22T01:05:45;3.33;;;2.15;;
9934;SDS011;5006;41.828;23.478;2024-03-22T01:06:51;4.13;;;2.38;;
9934;SDS011;5006;41.828;23.478;2024-03-22T01:07:56;3.75;;;2.67;;
9934;SDS011;5006;41.828;23.478;2024-03-22T01:09:03;2.85;;;2.38;;
9934;SDS011;5006;41.828;23.478;2024-03-22T01:10:10;2.92;;;2.10;;
9934;SDS011;5006;41.828;23.478;2024-03-22T01:11:15;3.55;;;2.28;;
9934;SDS011;5006;41.828;23.478;2024-03-22T01:12:20;4.95;;;2.30;;
9934;SDS011;5006;41.828;23.478;2024-03-22T01:13:26;3.13;;;2.38;;
9934;SDS011;5006;41.828;23.478;2024-03-22T01:14:31;5.25;;;2.35;;
9934;SDS011;5006;41.828;23.478;2024-03-22T01:15:36;2.92;;;2.40;;
9934;SDS011;5006;41.828;23.478;2024-03-22T01:16:42;4.25;;;2.28;;
9934;SDS011;5006;41.828;23.478;2024-03-22T01:17:49;3.40;;;2.25;;
9934;SDS011;5006;41.828;23.478;2024-03-22T01:18:55;4.90;;;2.40;;
9934;SDS011;5006;41.828;23.478;2024-03-22T01:20:00;2.50;;;2.10;;
9934;SDS011;5006;41.828;23.478;2024-03-22T01:21:05;3.13;;;2.30;;
9934;SDS011;5006;41.828;23.478;2024-03-22T01:22:11;2.97;;;2.03;;
9934;SDS011;5006;41.828;23.478;2024-03-22T01:23:16;4.63;;;2.42;;
9934;SDS011;5006;41.828;23.478;2024-03-22T01:24:22;3.63;;;2.63;;
9934;SDS011;5006;41.828;23.478;2024-03-22T01:25:28;3.30;;;2.13;;
9934;SDS011;5006;41.828;23.478;2024-03-22T01:26:36;3.83;;;2.30;;
9934;SDS011;5006;41.828;23.478;2024-03-22T01:27:41;3.63;;;2.28;;
9934;SDS011;5006;41.828;23.478;2024-03-22T01:28:46;3.20;;;2.33;;
9934;SDS011;5006;41.828;23.478;2024-03-22T01:29:52;3.75;;;2.72;;
9934;SDS011;5006;41.828;23.478;2024-03-22T01:30:58;4.28;;;2.80;;
9934;SDS011;5006;41.828;23.478;2024-03-22T01:32:03;3.65;;;2.95;;
9934;SDS011;5006;41.828;23.478;2024-03-22T01:33:09;3.90;;;2.85;;
9934;SDS011;5006;41.828;23.478;2024-03-22T01:34:15;3.50;;;2.33;;
9934;SDS011;5006;41.828;23.478;2024-03-22T01:35:20;5.35;;;3.50;;
9934;SDS011;5006;41.828;23.478;2024-03-22T01:36:25;6.00;;;3.90;;
9934;SDS011;5006;41.828;23.478;2024-03-22T01:37:31;6.00;;;3.25;;
9934;SDS011;5006;41.828;23.478;2024-03-22T01:38:38;4.95;;;2.97;;
9934;SDS011;5006;41.828;23.478;2024-03-22T01:39:44;4.53;;;3.13;;
9934;SDS011;5006;41.828;23.478;2024-03-22T01:40:50;3.85;;;2.88;;
9934;SDS011;5006;41.828;23.478;2024-03-22T01:41:55;5.03;;;2.58;;
9934;SDS011;5006;41.828;23.478;2024-03-22T01:43:02;5.13;;;2.60;;
9934;SDS011;5006;41.828;23.478;2024-03-22T01:44:08;2.88;;;2.30;;
9934;SDS011;5006;41.828;23.478;2024-03-22T01:45:13;4.10;;;2.45;;
9934;SDS011;5006;41.828;23.478;2024-03-22T01:46:20;3.90;;;2.60;;
9934;SDS011;5006;41.828;23.478;2024-03-22T01:47:25;3.38;;;2.53;;
9934;SDS011;5006;41.828;23.478;2024-03-22T01:48:31;4.38;;;2.88;;
9934;SDS011;5006;41.828;23.478;2024-03-22T01:49:37;3.65;;;2.90;;
9934;SDS011;5006;41.828;23.478;2024-03-22T01:50:43;4.85;;;2.85;;
9934;SDS011;5006;41.828;23.478;2024-03-22T01:51:49;4.90;;;2.60;;
9934;SDS011;5006;41.828;23.478;2024-03-22T01:52:56;5.28;;;2.90;;
9934;SDS011;5006;41.828;23.478;2024-03-22T01:54:03;5.53;;;2.45;;
9934;SDS011;5006;41.828;23.478;2024-03-22T01:55:11;3.20;;;2.40;;
9934;SDS011;5006;41.828;23.478;2024-03-22T01:56:16;2.88;;;2.20;;
9934;SDS011;5006;41.828;23.478;2024-03-22T01:57:22;4.93;;;2.20;;
9934;SDS011;5006;41.828;23.478;2024-03-22T01:58:28;2.60;;;2.10;;
9934;SDS011;5006;41.828;23.478;2024-03-22T01:59:34;3.05;;;2.20;;
9934;SDS011;5006;41.828;23.478;2024-03-22T02:00:40;3.17;;;2.58;;
9934;SDS011;5006;41.828;23.478;2024-03-22T02:01:47;2.85;;;2.30;;
9934;SDS011;5006;41.828;23.478;2024-03-22T02:02:53;2.95;;;2.30;;
9934;SDS011;5006;41.828;23.478;2024-03-22T02:03:59;3.67;;;2.25;;
9934;SDS011;5006;41.828;23.478;2024-03-22T02:05:13;3.85;;;2.40;;
9934;SDS011;5006;41.828;23.478;2024-03-22T02:06:19;4.25;;;2.40;;
9934;SDS011;5006;41.828;23.478;2024-03-22T02:07:24;4.13;;;2.60;;
9934;SDS011;5006;41.828;23.478;2024-03-22T02:08:33;4.15;;;2.53;;
9934;SDS011;5006;41.828;23.478;2024-03-22T02:09:38;3.97;;;2.50;;
9934;SDS011;5006;41.828;23.478;2024-03-22T02:10:45;3.13;;;2.50;;
9934;SDS011;5006;41.828;23.478;2024-03-22T02:11:52;3.38;;;2.47;;
9934;SDS011;5006;41.828;23.478;2024-03-22T02:12:57;3.88;;;2.30;;
9934;SDS011;5006;41.828;23.478;2024-03-22T02:14:03;2.60;;;2.28;;
9934;SDS011;5006;41.828;23.478;2024-03-22T02:15:08;2.50;;;2.28;;
9934;SDS011;5006;41.828;23.478;2024-03-22T02:16:16;3.70;;;2.50;;
9934;SDS011;5006;41.828;23.478;2024-03-22T02:17:21;2.92;;;2.10;;
9934;SDS011;5006;41.828;23.478;2024-03-22T02:18:26;11.35;;;7.30;;
9934;SDS011;5006;41.828;23.478;2024-03-22T02:19:32;12.15;;;7.50;;
9934;SDS011;5006;41.828;23.478;2024-03-22T02:20:38;14.32;;;9.43;;
9934;SDS011;5006;41.828;23.478;2024-03-22T02:21:43;15.38;;;10.48;;
9934;SDS011;5006;41.828;23.478;2024-03-22T02:22:48;14.55;;;10.98;;
9934;SDS011;5006;41.828;23.478;2024-03-22T02:23:55;18.27;;;11.82;;
9934;SDS011;5006;41.828;23.478;2024-03-22T02:25:01;19.60;;;12.02;;
9934;SDS011;5006;41.828;23.478;2024-03-22T02:26:06;16.98;;;11.10;;
9934;SDS011;5006;41.828;23.478;2024-03-22T02:27:12;12.82;;;8.32;;
9934;SDS011;5006;41.828;23.478;2024-03-22T02:28:18;12.30;;;7.78;;
9934;SDS011;5006;41.828;23.478;2024-03-22T02:29:23;10.55;;;7.00;;
9934;SDS011;5006;41.828;23.478;2024-03-22T02:30:29;11.13;;;6.40;;
9934;SDS011;5006;41.828;23.478;2024-03-22T02:31:35;9.43;;;5.72;;
9934;SDS011;5006;41.828;23.478;2024-03-22T02:32:40;8.48;;;5.13;;
9934;SDS011;5006;41.828;23.478;2024-03-22T02:33:45;9.52;;;5.10;;
9934;SDS011;5006;41.828;23.478;2024-03-22T02:34:51;9.52;;;5.95;;
9934;SDS011;5006;41.828;23.478;2024-03-22T02:35:57;7.80;;;5.50;;
9934;SDS011;5006;41.828;23.478;2024-03-22T02:37:02;7.95;;;5.35;;
9934;SDS011;5006;41.828;23.478;2024-03-22T02:38:08;7.55;;;4.72;;
9934;SDS011;5006;41.828;23.478;2024-03-22T02:39:14;7.47;;;4.38;;
9934;SDS011;5006;41.828;23.478;2024-03-22T02:40:21;5.63;;;4.20;;
9934;SDS011;5006;41.828;23.478;2024-03-22T02:41:26;6.07;;;3.53;;
9934;SDS011;5006;41.828;23.478;2024-03-22T02:42:31;4.03;;;3.38;;
9934;SDS011;5006;41.828;23.478;2024-03-22T02:43:37;5.88;;;3.40;;
9934;SDS011;5006;41.828;23.478;2024-03-22T02:44:42;5.13;;;2.90;;
9934;SDS011;5006;41.828;23.478;2024-03-22T02:45:48;4.25;;;2.85;;
9934;SDS011;5006;41.828;23.478;2024-03-22T02:46:53;4.90;;;2.78;;
9934;SDS011;5006;41.828;23.478;2024-03-22T02:47:59;4.20;;;2.80;;
9934;SDS011;5006;41.828;23.478;2024-03-22T02:49:04;4.45;;;3.10;;
9934;SDS011;5006;41.828;23.478;2024-03-22T02:50:10;5.38;;;3.25;;
9934;SDS011;5006;41.828;23.478;2024-03-22T02:51:15;5.68;;;4.65;;
9934;SDS011;5006;41.828;23.478;2024-03-22T02:52:22;6.20;;;4.47;;
9934;SDS011;5006;41.828;23.478;2024-03-22T02:53:27;5.47;;;3.50;;
9934;SDS011;5006;41.828;23.478;2024-03-22T02:54:34;5.40;;;3.30;;
9934;SDS011;5006;41.828;23.478;2024-03-22T02:55:41;5.65;;;3.28;;
9934;SDS011;5006;41.828;23.478;2024-03-22T02:56:47;8.02;;;2.85;;
9934;SDS011;5006;41.828;23.478;2024-03-22T02:57:53;4.15;;;2.60;;
9934;SDS011;5006;41.828;23.478;2024-03-22T02:59:00;9.35;;;5.95;;
9934;SDS011;5006;41.828;23.478;2024-03-22T03:00:08;8.93;;;6.75;;
9934;SDS011;5006;41.828;23.478;2024-03-22T03:01:14;7.28;;;5.20;;
9934;SDS011;5006;41.828;23.478;2024-03-22T03:02:19;9.77;;;6.43;;
9934;SDS011;5006;41.828;23.478;2024-03-22T03:03:25;11.15;;;8.02;;
9934;SDS011;5006;41.828;23.478;2024-03-22T03:04:30;9.70;;;6.15;;
9934;SDS011;5006;41.828;23.478;2024-03-22T03:05:36;7.03;;;4.55;;
9934;SDS011;5006;41.828;23.478;2024-03-22T03:06:41;5.43;;;3.85;;
9934;SDS011;5006;41.828;23.478;2024-03-22T03:07:47;5.90;;;3.55;;
9934;SDS011;5006;41.828;23.478;2024-03-22T03:08:52;5.53;;;3.80;;
9934;SDS011;5006;41.828;23.478;2024-03-22T03:09:59;4.60;;;3.55;;
9934;SDS011;5006;41.828;23.478;2024-03-22T03:11:05;5.55;;;3.00;;
9934;SDS011;5006;41.828;23.478;2024-03-22T03:12:12;5.35;;;2.92;;
9934;SDS011;5006;41.828;23.478;2024-03-22T03:13:17;5.55;;;3.40;;
9934;SDS011;5006;41.828;23.478;2024-03-22T03:14:22;8.23;;;3.17;;
9934;SDS011;5006;41.828;23.478;2024-03-22T03:15:29;4.63;;;3.08;;
9934;SDS011;5006;41.828;23.478;2024-03-22T03:16:34;4.65;;;2.78;;
9934;SDS011;5006;41.828;23.478;2024-03-22T03:17:40;5.30;;;2.83;;
9934;SDS011;5006;41.828;23.478;2024-03-22T03:18:45;6.03;;;2.83;;
9934;SDS011;5006;41.828;23.478;2024-03-22T03:19:51;4.60;;;3.50;;
9934;SDS011;5006;41.828;23.478;2024-03-22T03:20:56;4.65;;;3.30;;
9934;SDS011;5006;41.828;23.478;2024-03-22T03:22:01;6.63;;;3.78;;
9934;SDS011;5006;41.828;23.478;2024-03-22T03:23:07;7.68;;;3.15;;
9934;SDS011;5006;41.828;23.478;2024-03-22T03:24:13;4.22;;;3.10;;
9934;SDS011;5006;41.828;23.478;2024-03-22T03:25:20;6.05;;;3.33;;
9934;SDS011;5006;41.828;23.478;2024-03-22T03:26:25;4.40;;;3.10;;
9934;SDS011;5006;41.828;23.478;2024-03-22T03:27:31;5.90;;;3.53;;
9934;SDS011;5006;41.828;23.478;2024-03-22T03:28:37;4.15;;;2.83;;
9934;SDS011;5006;41.828;23.478;2024-03-22T03:29:42;5.07;;;3.20;;
9934;SDS011;5006;41.828;23.478;2024-03-22T03:30:47;4.40;;;2.90;;
9934;SDS011;5006;41.828;23.478;2024-03-22T03:31:53;5.20;;;2.92;;
9934;SDS011;5006;41.828;23.478;2024-03-22T03:33:00;4.32;;;2.60;;
9934;SDS011;5006;41.828;23.478;2024-03-22T03:34:06;4.28;;;2.97;;
9934;SDS011;5006;41.828;23.478;2024-03-22T03:35:11;3.30;;;2.50;;
9934;SDS011;5006;41.828;23.478;2024-03-22T03:36:16;5.03;;;2.97;;
9934;SDS011;5006;41.828;23.478;2024-03-22T03:37:23;4.18;;;2.80;;
9934;SDS011;5006;41.828;23.478;2024-03-22T03:38:28;4.85;;;2.75;;
9934;SDS011;5006;41.828;23.478;2024-03-22T03:39:33;5.20;;;2.92;;
9934;SDS011;5006;41.828;23.478;2024-03-22T03:40:39;3.47;;;2.80;;
9934;SDS011;5006;41.828;23.478;2024-03-22T03:41:46;3.85;;;2.83;;
9934;SDS011;5006;41.828;23.478;2024-03-22T03:42:51;4.78;;;2.60;;
9934;SDS011;5006;41.828;23.478;2024-03-22T03:43:57;3.90;;;2.67;;
9934;SDS011;5006;41.828;23.478;2024-03-22T03:45:03;5.55;;;2.65;;
9934;SDS011;5006;41.828;23.478;2024-03-22T03:46:10;4.63;;;2.75;;
9934;SDS011;5006;41.828;23.478;2024-03-22T03:47:16;4.78;;;2.80;;
9934;SDS011;5006;41.828;23.478;2024-03-22T03:48:22;3.90;;;2.70;;
9934;SDS011;5006;41.828;23.478;2024-03-22T03:49:28;3.33;;;2.30;;
9934;SDS011;5006;41.828;23.478;2024-03-22T03:50:34;4.03;;;2.42;;
9934;SDS011;5006;41.828;23.478;2024-03-22T03:51:40;4.55;;;2.80;;
9934;SDS011;5006;41.828;23.478;2024-03-22T03:52:47;3.83;;;2.75;;
9934;SDS011;5006;41.828;23.478;2024-03-22T03:53:53;3.40;;;2.33;;
9934;SDS011;5006;41.828;23.478;2024-03-22T03:54:59;3.42;;;2.60;;
9934;SDS011;5006;41.828;23.478;2024-03-22T03:56:07;3.40;;;2.58;;
9934;SDS011;5006;41.828;23.478;2024-03-22T03:57:13;4.28;;;2.70;;
9934;SDS011;5006;41.828;23.478;2024-03-22T03:58:18;3.28;;;2.65;;
9934;SDS011;5006;41.828;23.478;2024-03-22T03:59:24;3.28;;;2.45;;
9934;SDS011;5006;41.828;23.478;2024-03-22T04:00:30;3.13;;;2.50;;
9934;SDS011;5006;41.828;23.478;2024-03-22T04:01:35;3.55;;;2.47;;
9934;SDS011;5006;41.828;23.478;2024-03-22T04:02:41;6.45;;;2.40;;
9934;SDS011;5006;41.828;23.478;2024-03-22T04:03:48;4.35;;;2.50;;
9934;SDS011;5006;41.828;23.478;2024-03-22T04:04:54;3.17;;;2.40;;
9934;SDS011;5006;41.828;23.478;2024-03-22T04:06:00;16.25;;;11.18;;
9934;SDS011;5006;41.828;23.478;2024-03-22T04:07:06;12.35;;;8.10;;
9934;SDS011;5006;41.828;23.478;2024-03-22T04:08:13;4.85;;;3.47;;
9934;SDS011;5006;41.828;23.478;2024-03-22T04:09:18;6.43;;;4.60;;
9934;SDS011;5006;41.828;23.478;2024-03-22T04:10:23;7.97;;;6.57;;
9934;SDS011;5006;41.828;23.478;2024-03-22T04:11:29;8.60;;;6.00;;
9934;SDS011;5006;41.828;23.478;2024-03-22T04:12:36;7.22;;;4.43;;
9934;SDS011;5006;41.828;23.478;2024-03-22T04:13:41;7.30;;;4.55;;
9934;SDS011;5006;41.828;23.478;2024-03-22T04:14:47;5.63;;;4.30;;
9934;SDS011;5006;41.828;23.478;2024-03-22T04:15:52;4.53;;;3.47;;
9934;SDS011;5006;41.828;23.478;2024-03-22T04:16:59;11.05;;;5.80;;
9934;SDS011;5006;41.828;23.478;2024-03-22T04:18:04;21.77;;;12.07;;
9934;SDS011;5006;41.828;23.478;2024-03-22T04:19:09;26.10;;;15.50;;
9934;SDS011;5006;41.828;23.478;2024-03-22T04:20:15;35.28;;;22.05;;
9934;SDS011;5006;41.828;23.478;2024-03-22T04:21:20;29.65;;;20.35;;
9934;SDS011;5006;41.828;23.478;2024-03-22T04:22:25;28.42;;;20.30;;
9934;SDS011;5006;41.828;23.478;2024-03-22T04:23:32;29.02;;;22.98;;
9934;SDS011;5006;41.828;23.478;2024-03-22T04:24:38;38.25;;;27.75;;
9934;SDS011;5006;41.828;23.478;2024-03-22T04:25:51;34.20;;;22.63;;
9934;SDS011;5006;41.828;23.478;2024-03-22T04:27:00;30.77;;;20.70;;
9934;SDS011;5006;41.828;23.478;2024-03-22T04:28:06;25.95;;;17.38;;
9934;SDS011;5006;41.828;23.478;2024-03-22T04:29:11;26.55;;;16.55;;
9934;SDS011;5006;41.828;23.478;2024-03-22T04:30:16;23.35;;;17.17;;
9934;SDS011;5006;41.828;23.478;2024-03-22T04:31:23;18.88;;;12.93;;
9934;SDS011;5006;41.828;23.478;2024-03-22T04:32:28;14.63;;;10.40;;
9934;SDS011;5006;41.828;23.478;2024-03-22T04:33:34;16.23;;;9.63;;
9934;SDS011;5006;41.828;23.478;2024-03-22T04:34:41;12.88;;;7.82;;
9934;SDS011;5006;41.828;23.478;2024-03-22T04:35:47;12.82;;;7.85;;
9934;SDS011;5006;41.828;23.478;2024-03-22T04:36:53;11.57;;;7.28;;
9934;SDS011;5006;41.828;23.478;2024-03-22T04:38:00;12.85;;;7.93;;
9934;SDS011;5006;41.828;23.478;2024-03-22T04:39:06;11.77;;;8.13;;
9934;SDS011;5006;41.828;23.478;2024-03-22T04:40:14;17.98;;;8.90;;
9934;SDS011;5006;41.828;23.478;2024-03-22T04:41:19;19.30;;;10.32;;
9934;SDS011;5006;41.828;23.478;2024-03-22T04:42:27;17.95;;;10.13;;
9934;SDS011;5006;41.828;23.478;2024-03-22T04:43:32;16.27;;;10.25;;
9934;SDS011;5006;41.828;23.478;2024-03-22T04:44:38;15.63;;;9.18;;
9934;SDS011;5006;41.828;23.478;2024-03-22T04:45:44;17.63;;;9.25;;
9934;SDS011;5006;41.828;23.478;2024-03-22T04:46:50;11.85;;;7.68;;
9934;SDS011;5006;41.828;23.478;2024-03-22T04:47:56;11.45;;;7.22;;
9934;SDS011;5006;41.828;23.478;2024-03-22T04:49:02;13.43;;;7.80;;
9934;SDS011;5006;41.828;23.478;2024-03-22T04:50:07;10.07;;;6.32;;
9934;SDS011;5006;41.828;23.478;2024-03-22T04:51:13;8.95;;;5.68;;
9934;SDS011;5006;41.828;23.478;2024-03-22T04:52:19;7.60;;;5.28;;
9934;SDS011;5006;41.828;23.478;2024-03-22T04:53:25;5.78;;;4.38;;
9934;SDS011;5006;41.828;23.478;2024-03-22T04:54:31;5.97;;;4.38;;
9934;SDS011;5006;41.828;23.478;2024-03-22T04:55:36;6.40;;;4.10;;
9934;SDS011;5006;41.828;23.478;2024-03-22T04:56:42;5.80;;;4.10;;
9934;SDS011;5006;41.828;23.478;2024-03-22T04:57:51;6.63;;;3.65;;
9934;SDS011;5006;41.828;23.478;2024-03-22T04:58:56;4.47;;;2.95;;
9934;SDS011;5006;41.828;23.478;2024-03-22T05:00:01;4.15;;;3.50;;
9934;SDS011;5006;41.828;23.478;2024-03-22T05:01:06;6.75;;;4.95;;
9934;SDS011;5006;41.828;23.478;2024-03-22T05:02:13;24.45;;;16.13;;
9934;SDS011;5006;41.828;23.478;2024-03-22T05:03:19;28.05;;;18.98;;
9934;SDS011;5006;41.828;23.478;2024-03-22T05:04:25;28.10;;;17.50;;
9934;SDS011;5006;41.828;23.478;2024-03-22T05:05:30;25.13;;;18.38;;
9934;SDS011;5006;41.828;23.478;2024-03-22T05:06:36;35.40;;;24.00;;
9934;SDS011;5006;41.828;23.478;2024-03-22T05:07:42;36.40;;;25.65;;
9934;SDS011;5006;41.828;23.478;2024-03-22T05:08:48;33.65;;;23.63;;
9934;SDS011;5006;41.828;23.478;2024-03-22T05:09:54;30.58;;;23.92;;
9934;SDS011;5006;41.828;23.478;2024-03-22T05:11:01;31.30;;;23.88;;
9934;SDS011;5006;41.828;23.478;2024-03-22T05:12:08;30.25;;;22.55;;
9934;SDS011;5006;41.828;23.478;2024-03-22T05:13:15;35.63;;;24.13;;
9934;SDS011;5006;41.828;23.478;2024-03-22T05:14:22;42.40;;;30.35;;
9934;SDS011;5006;41.828;23.478;2024-03-22T05:15:28;60.70;;;43.00;;
9934;SDS011;5006;41.828;23.478;2024-03-22T05:16:34;84.25;;;57.90;;
9934;SDS011;5006;41.828;23.478;2024-03-22T05:17:40;109.25;;;66.55;;
9934;SDS011;5006;41.828;23.478;2024-03-22T05:18:47;107.55;;;68.35;;
9934;SDS011;5006;41.828;23.478;2024-03-22T05:19:52;96.43;;;68.78;;
9934;SDS011;5006;41.828;23.478;2024-03-22T05:20:58;110.60;;;72.95;;
9934;SDS011;5006;41.828;23.478;2024-03-22T05:22:04;102.25;;;69.55;;
9934;SDS011;5006;41.828;23.478;2024-03-22T05:23:11;95.75;;;70.95;;
9934;SDS011;5006;41.828;23.478;2024-03-22T05:24:16;100.90;;;69.80;;
9934;SDS011;5006;41.828;23.478;2024-03-22T05:25:22;77.65;;;57.88;;
9934;SDS011;5006;41.828;23.478;2024-03-22T05:26:27;70.32;;;50.05;;
9934;SDS011;5006;41.828;23.478;2024-03-22T05:27:36;77.53;;;52.97;;
9934;SDS011;5006;41.828;23.478;2024-03-22T05:28:43;81.22;;;53.90;;
9934;SDS011;5006;41.828;23.478;2024-03-22T05:29:48;69.13;;;46.97;;
9934;SDS011;5006;41.828;23.478;2024-03-22T05:30:53;63.42;;;40.80;;
9934;SDS011;5006;41.828;23.478;2024-03-22T05:31:59;61.28;;;41.88;;
9934;SDS011;5006;41.828;23.478;2024-03-22T05:33:05;56.42;;;40.58;;
9934;SDS011;5006;41.828;23.478;2024-03-22T05:34:11;52.53;;;37.28;;
9934;SDS011;5006;41.828;23.478;2024-03-22T05:35:17;47.15;;;33.33;;
9934;SDS011;5006;41.828;23.478;2024-03-22T05:36:24;43.03;;;30.02;;
9934;SDS011;5006;41.828;23.478;2024-03-22T05:37:30;39.88;;;29.00;;
9934;SDS011;5006;41.828;23.478;2024-03-22T05:38:36;55.53;;;35.60;;
9934;SDS011;5006;41.828;23.478;2024-03-22T05:39:42;49.70;;;35.63;;
9934;SDS011;5006;41.828;23.478;2024-03-22T05:40:47;52.38;;;38.10;;
9934;SDS011;5006;41.828;23.478;2024-03-22T05:41:52;69.57;;;39.63;;
9934;SDS011;5006;41.828;23.478;2024-03-22T05:42:59;57.53;;;37.05;;
9934;SDS011;5006;41.828;23.478;2024-03-22T05:44:07;38.53;;;26.08;;
9934;SDS011;5006;41.828;23.478;2024-03-22T05:45:12;35.08;;;23.80;;
9934;SDS011;5006;41.828;23.478;2024-03-22T05:46:18;38.03;;;27.60;;
9934;SDS011;5006;41.828;23.478;2024-03-22T05:47:25;46.58;;;33.17;;
9934;SDS011;5006;41.828;23.478;2024-03-22T05:48:31;62.92;;;43.42;;
9934;SDS011;5006;41.828;23.478;2024-03-22T05:49:36;56.88;;;41.75;;
9934;SDS011;5006;41.828;23.478;2024-03-22T05:50:43;70.95;;;49.95;;
9934;SDS011;5006;41.828;23.478;2024-03-22T05:51:48;79.70;;;56.53;;
9934;SDS011;5006;41.828;23.478;2024-03-22T05:52:54;75.07;;;55.25;;
9934;SDS011;5006;41.828;23.478;2024-03-22T05:54:01;69.15;;;48.70;;
9934;SDS011;5006;41.828;23.478;2024-03-22T05:55:07;63.75;;;43.38;;
9934;SDS011;5006;41.828;23.478;2024-03-22T05:56:12;64.28;;;48.72;;
9934;SDS011;5006;41.828;23.478;2024-03-22T05:57:17;61.28;;;45.75;;
9934;SDS011;5006;41.828;23.478;2024-03-22T05:58:23;45.25;;;32.10;;
9934;SDS011;5006;41.828;23.478;2024-03-22T05:59:30;39.45;;;29.50;;
9934;SDS011;5006;41.828;23.478;2024-03-22T06:00:36;39.40;;;29.52;;
9934;SDS011;5006;41.828;23.478;2024-03-22T06:01:41;30.38;;;23.60;;
9934;SDS011;5006;41.828;23.478;2024-03-22T06:02:47;32.20;;;23.33;;
9934;SDS011;5006;41.828;23.478;2024-03-22T06:03:52;31.17;;;25.13;;
9934;SDS011;5006;41.828;23.478;2024-03-22T06:04:58;43.65;;;31.80;;
9934;SDS011;5006;41.828;23.478;2024-03-22T06:06:06;28.80;;;22.58;;
9934;SDS011;5006;41.828;23.478;2024-03-22T06:07:12;38.05;;;29.02;;
9934;SDS011;5006;41.828;23.478;2024-03-22T06:08:19;28.83;;;20.55;;
9934;SDS011;5006;41.828;23.478;2024-03-22T06:09:26;29.08;;;20.23;;
9934;SDS011;5006;41.828;23.478;2024-03-22T06:10:41;30.25;;;22.45;;
9934;SDS011;5006;41.828;23.478;2024-03-22T06:11:48;28.60;;;19.95;;
9934;SDS011;5006;41.828;23.478;2024-03-22T06:12:55;32.03;;;21.20;;
9934;SDS011;5006;41.828;23.478;2024-03-22T06:14:00;30.48;;;20.27;;
9934;SDS011;5006;41.828;23.478;2024-03-22T06:15:07;32.17;;;23.20;;
9934;SDS011;5006;41.828;23.478;2024-03-22T06:16:13;29.95;;;23.02;;
9934;SDS011;5006;41.828;23.478;2024-03-22T06:17:19;28.40;;;19.92;;
9934;SDS011;5006;41.828;23.478;2024-03-22T06:18:24;27.13;;;19.42;;
9934;SDS011;5006;41.828;23.478;2024-03-22T06:19:29;21.45;;;15.23;;
9934;SDS011;5006;41.828;23.478;2024-03-22T06:20:37;20.27;;;15.10;;
9934;SDS011;5006;41.828;23.478;2024-03-22T06:21:43;16.58;;;11.80;;
9934;SDS011;5006;41.828;23.478;2024-03-22T06:22:48;19.55;;;13.65;;
9934;SDS011;5006;41.828;23.478;2024-03-22T06:23:54;17.77;;;12.60;;
9934;SDS011;5006;41.828;23.478;2024-03-22T06:24:59;20.27;;;14.70;;
9934;SDS011;5006;41.828;23.478;2024-03-22T06:26:05;30.35;;;21.67;;
9934;SDS011;5006;41.828;23.478;2024-03-22T06:27:11;28.10;;;18.13;;
9934;SDS011;5006;41.828;23.478;2024-03-22T06:28:18;19.15;;;15.02;;
9934;SDS011;5006;41.828;23.478;2024-03-22T06:29:24;18.92;;;14.05;;
9934;SDS011;5006;41.828;23.478;2024-03-22T06:30:32;20.23;;;14.75;;
9934;SDS011;5006;41.828;23.478;2024-03-22T06:31:37;20.40;;;14.48;;
9934;SDS011;5006;41.828;23.478;2024-03-22T06:32:46;33.45;;;23.92;;
9934;SDS011;5006;41.828;23.478;2024-03-22T06:33:52;31.25;;;22.52;;
9934;SDS011;5006;41.828;23.478;2024-03-22T06:34:58;23.50;;;17.50;;
9934;SDS011;5006;41.828;23.478;2024-03-22T06:36:05;19.95;;;15.93;;
9934;SDS011;5006;41.828;23.478;2024-03-22T06:37:11;25.90;;;19.40;;
9934;SDS011;5006;41.828;23.478;2024-03-22T06:38:16;24.85;;;19.17;;
9934;SDS011;5006;41.828;23.478;2024-03-22T06:39:23;26.13;;;19.02;;
9934;SDS011;5006;41.828;23.478;2024-03-22T06:40:29;24.00;;;19.23;;
9934;SDS011;5006;41.828;23.478;2024-03-22T06:41:35;27.08;;;19.67;;